Time;durP1;ratioP1;P1;durP2;ratioP2;P2;SDS_P1;SDS_P2;PMS_P1;PMS_P2;Temp;Humidity;BMP_temperature;BMP_pressure;BME280_temperature;BME280_humidity;BME280_pressure;Samples;Min_cycle;Max_cycle;Signal;HPM_P1;HPM_P2
2022/11/05 00:10:21;;;;;;;38.75;27.48;;;;;;;11.11;58.48;99205.78;5013679;28;20049;-79
2022/11/05 00:18:16;;;;;;;37.65;27.40;;;;;;;11.62;59.02;99303.44;5013054;28;20036;-78
2022/11/05 00:20:41;;;;;;;36.17;26.63;;;;;;;10.77;59.22;99174.78;5011048;28;20105;-79
2022/11/05 00:26:04;;;;;;;38.08;26.40;;;;;;;11.13;58.79;99224.91;5013106;28;20028;-78
2022/11/05 00:28:30;;;;;;;32.40;24.58;;;;;;;11.59;58.89;99293.25;5013100;28;20123;-78
2022/11/05 00:31:10;;;;;;;39.33;26.25;;;;;;;11.58;58.98;99315.41;5012752;28;20025;-78
2022/11/05 00:33:37;;;;;;;32.75;25.25;;;;;;;11.60;58.92;99302.00;5012815;28;20030;-78
2022/11/05 00:36:04;;;;;;;34.05;25.90;;;;;;;11.50;58.98;99314.72;5012748;28;20026;-78
2022/11/05 00:38:30;;;;;;;33.95;24.13;;;;;;;11.41;59.18;99277.84;5012894;28;20030;-78
2022/11/05 00:40:55;;;;;;;37.38;26.88;;;;;;;10.97;59.20;99203.22;5012916;28;20056;-78
2022/11/05 00:46:05;;;;;;;39.95;28.30;;;;;;;11.09;59.53;99214.91;5012865;28;20113;-79
2022/11/05 00:51:14;;;;;;;35.25;25.25;;;;;;;11.12;58.87;99214.53;5012666;28;20040;-78
2022/11/05 00:53:40;;;;;;;34.88;25.23;;;;;;;11.57;58.98;99311.13;5012503;28;20034;-78
2022/11/05 00:56:05;;;;;;;35.10;26.83;;;;;;;11.59;59.13;99287.97;5012415;28;20029;-79
2022/11/05 00:58:31;;;;;;;34.92;27.10;;;;;;;11.51;59.01;99272.22;5012450;28;20018;-79
2022/11/05 01:00:57;;;;;;;35.08;27.92;;;;;;;11.67;58.43;99290.47;5012268;28;20482;-79
2022/11/05 01:03:26;;;;;;;33.50;25.33;;;;;;;11.21;58.68;99224.00;5012330;28;20022;-79
2022/11/05 01:05:56;;;;;;;35.47;24.42;;;;;;;11.50;58.39;99290.94;5012362;28;20506;-78
2022/11/05 01:08:24;;;;;;;36.72;26.02;;;;;;;11.44;59.07;99287.22;5012130;28;20046;-78
2022/11/05 01:10:55;;;;;;;34.90;25.73;;;;;;;11.42;59.16;99289.22;5012254;28;20033;-78
2022/11/05 01:13:24;;;;;;;35.70;25.02;;;;;;;11.37;58.42;99281.06;5011073;28;20026;-79
2022/11/05 01:15:50;;;;;;;34.13;25.63;;;;;;;11.09;58.93;99255.34;5012191;28;20482;-79
2022/11/05 01:18:16;;;;;;;36.70;25.55;;;;;;;9.94;58.94;99079.44;5012134;28;20026;-79
2022/11/05 01:20:42;;;;;;;33.65;24.77;;;;;;;10.76;58.68;99207.47;5012068;28;20523;-78
2022/11/05 01:23:07;;;;;;;39.70;27.05;;;;;;;10.18;58.41;99129.22;5010851;28;20057;-78
2022/11/05 01:25:33;;;;;;;37.63;27.58;;;;;;;11.10;58.43;99279.94;5012075;28;20044;-78
2022/11/05 01:27:59;;;;;;;41.63;28.33;;;;;;;10.04;58.37;99095.78;5011922;28;20037;-79
2022/11/05 01:30:25;;;;;;;37.47;26.23;;;;;;;10.29;58.20;99135.88;5011771;28;20103;-78
2022/11/05 01:32:50;;;;;;;36.72;25.88;;;;;;;10.79;58.38;99206.28;5010576;28;20463;-78
2022/11/05 01:35:17;;;;;;;43.35;27.58;;;;;;;11.16;57.81;99260.72;5010590;28;20108;-78
2022/11/05 01:37:43;;;;;;;34.22;25.95;;;;;;;11.11;58.66;99265.72;5011891;28;20026;-78
2022/11/05 01:40:15;;;;;;;36.97;25.25;;;;;;;11.10;58.06;99272.03;5010579;28;20060;-78
2022/11/05 01:42:41;;;;;;;32.85;23.77;;;;;;;10.49;58.57;99179.16;5011838;28;20052;-78
2022/11/05 01:45:12;;;;;;;36.15;24.65;;;;;;;11.16;58.28;99268.66;5011839;28;20026;-78
2022/11/05 01:47:50;;;;;;;39.15;26.27;;;;;;;11.11;57.89;99263.09;5010430;28;20419;-78
2022/11/05 01:50:37;;;;;;;35.70;24.23;;;;;;;11.02;57.79;99264.22;5010483;28;20033;-78
2022/11/05 01:53:41;;;;;;;35.22;24.10;;;;;;;10.96;58.58;99264.97;5011670;28;20495;-78
2022/11/05 01:56:44;;;;;;;36.65;26.08;;;;;;;10.82;58.72;99254.25;5011256;28;20038;-78
2022/11/05 01:59:17;;;;;;;36.00;25.67;;;;;;;10.94;58.43;99262.50;5011292;28;20044;-78
2022/11/05 02:01:43;;;;;;;39.70;27.85;;;;;;;10.79;58.76;99237.97;5011693;28;20502;-78
2022/11/05 02:04:13;;;;;;;36.03;26.13;;;;;;;10.93;58.43;99262.69;5011556;28;20026;-78
2022/11/05 02:06:45;;;;;;;37.67;24.92;;;;;;;10.68;58.67;99238.47;5011402;28;20032;-78
2022/11/05 02:09:16;;;;;;;;;;;;;;;10.65;59.83;99262.59;5011908;28;20419;-79
2022/11/05 02:11:41;;;;;;;38.25;26.23;;;;;;;9.99;58.82;99125.34;5011983;28;19953;-78
2022/11/05 02:14:07;;;;;;;35.80;25.65;;;;;;;10.86;58.31;99267.09;5011505;28;20160;-78
2022/11/05 02:16:42;;;;;;;35.38;24.35;;;;;;;10.70;59.12;99247.00;5011457;28;20075;-78
2022/11/05 02:19:26;;;;;;;36.90;24.73;;;;;;;10.85;58.88;99261.00;5011435;28;20018;-79
2022/11/05 02:22:03;;;;;;;34.22;25.90;;;;;;;10.92;59.00;99266.34;5011310;28;20022;-79
2022/11/05 02:24:59;;;;;;;34.78;25.58;;;;;;;10.90;58.54;99261.25;5011338;28;20034;-78
2022/11/05 02:27:59;;;;;;;40.47;26.23;;;;;;;10.73;58.67;99217.59;5011052;28;20018;-79
2022/11/05 02:30:42;;;;;;;35.05;25.80;;;;;;;10.91;58.82;99248.88;5011471;28;20026;-79
2022/11/05 02:33:19;;;;;;;35.30;26.15;;;;;;;10.92;58.58;99237.28;5011410;28;20032;-78
2022/11/05 02:35:59;;;;;;;33.03;24.75;;;;;;;11.00;58.29;99240.63;5011391;28;20079;-79
2022/11/05 02:38:24;;;;;;;37.65;27.10;;;;;;;11.04;58.29;99238.44;5011465;28;20022;-79
2022/11/05 02:41:08;;;;;;;33.00;25.10;;;;;;;11.05;57.56;99242.72;5011219;28;20446;-79
2022/11/05 02:43:52;;;;;;;34.85;25.83;;;;;;;11.07;58.37;99238.06;5013855;28;20022;-78
2022/11/05 02:46:27;;;;;;;35.83;26.67;;;;;;;11.09;58.22;99236.84;5014767;28;20101;-79
2022/11/05 02:48:58;;;;;;;34.15;25.75;;;;;;;11.09;58.28;99228.13;5013409;28;20446;-79
2022/11/05 02:51:42;;;;;;;33.22;24.25;;;;;;;11.05;57.74;99238.25;5014889;28;20026;-78
2022/11/05 02:54:12;;;;;;;33.38;24.30;;;;;;;10.99;58.16;99225.78;5014740;28;20029;-79
2022/11/05 02:56:42;;;;;;;34.65;24.60;;;;;;;10.49;58.41;99185.25;5014636;28;20025;-78
2022/11/05 02:59:08;;;;;;;34.97;24.55;;;;;;;10.96;58.48;99235.91;5014580;28;20477;-79
2022/11/05 03:01:36;;;;;;;32.28;25.08;;;;;;;10.93;58.09;99233.66;5014705;28;20100;-79
2022/11/05 03:04:05;;;;;;;36.10;25.40;;;;;;;10.91;58.49;99265.53;5014594;28;20456;-78
2022/11/05 03:06:55;;;;;;;32.63;25.48;;;;;;;10.79;58.23;99217.66;5014505;28;20160;-79
2022/11/05 03:09:32;;;;;;;36.60;26.70;;;;;;;10.93;58.59;99239.75;5014551;28;20502;-78
2022/11/05 03:12:29;;;;;;;32.95;25.20;;;;;;;10.92;58.29;99232.81;5014437;28;20025;-79
2022/11/05 03:15:08;;;;;;;33.90;24.20;;;;;;;10.61;58.92;99185.59;5013322;28;20060;-78
2022/11/05 03:17:49;;;;;;;33.08;24.35;;;;;;;10.95;58.58;99226.34;5014434;28;20033;-79
2022/11/05 03:20:34;;;;;;;35.47;25.95;;;;;;;11.00;58.51;99234.53;5014217;28;20029;-78
2022/11/05 03:23:28;;;;;;;35.47;26.27;;;;;;;11.01;58.33;99231.69;5014195;28;20606;-78
2022/11/05 03:26:31;;;;;;;34.97;26.40;;;;;;;10.49;58.32;99148.31;5014115;28;20032;-78
2022/11/05 03:29:08;;;;;;;38.35;26.77;;;;;;;10.38;58.19;99127.66;5012401;28;20037;-79
2022/11/05 03:31:36;;;;;;;32.08;23.70;;;;;;;11.01;58.44;99226.41;5014059;28;20087;-78
2022/11/05 03:34:04;;;;;;;35.00;26.13;;;;;;;10.97;57.91;99226.97;5014036;28;20022;-79
2022/11/05 03:36:52;;;;;;;36.17;25.50;;;;;;;10.90;57.95;99229.56;5014030;28;20032;-79
2022/11/05 03:39:27;;;;;;;38.65;25.48;;;;;;;10.31;58.42;99126.75;5014118;28;20050;-78
2022/11/05 03:41:54;;;;;;;37.03;26.05;;;;;;;10.93;58.53;99225.72;5013759;28;20159;-79
2022/11/05 03:44:25;;;;;;;36.10;24.92;;;;;;;10.83;58.44;99205.72;5013795;28;20014;-78
2022/11/05 03:46:54;;;;;;;39.30;27.50;;;;;;;10.92;58.18;99216.16;5013552;28;20025;-78
2022/11/05 03:49:33;;;;;;;39.45;26.45;;;;;;;10.92;58.53;99218.81;5013614;28;20392;-79
2022/11/05 03:52:16;;;;;;;39.90;27.88;;;;;;;10.88;58.66;99223.66;5013728;28;20018;-78
2022/11/05 03:54:42;;;;;;;36.42;26.70;;;;;;;10.90;58.54;99224.28;5012264;28;20513;-78
2022/11/05 03:57:24;;;;;;;40.17;28.30;;;;;;;10.62;58.24;99163.47;5013547;28;20022;-78
2022/11/05 03:59:50;;;;;;;35.65;25.48;;;;;;;10.88;58.80;99218.38;5013582;28;20105;-78
2022/11/05 04:02:18;;;;;;;37.00;24.95;;;;;;;10.21;58.67;99142.06;5013561;28;20514;-79
2022/11/05 04:04:44;;;;;;;37.15;27.30;;;;;;;10.82;57.84;99217.28;5013400;28;20105;-78
2022/11/05 04:15:23;;;;;;;36.47;26.33;;;;;;;10.29;58.71;99149.06;5013457;28;20037;-78
2022/11/05 04:17:49;;;;;;;42.08;27.95;;;;;;;10.12;58.59;99128.16;5013335;28;20018;-78
2022/11/05 04:25:49;;;;;;;37.40;26.83;;;;;;;10.54;58.62;99199.72;5013249;28;20564;-79
2022/11/05 04:28:15;;;;;;;40.90;27.95;;;;;;;10.26;58.80;99141.53;5012835;28;20034;-78
2022/11/05 04:30:43;;;;;;;34.30;27.08;;;;;;;10.57;57.96;99196.72;5013082;28;20409;-79
2022/11/05 04:33:14;;;;;;;38.03;27.25;;;;;;;10.74;58.45;99213.94;5013108;28;20022;-79
2022/11/05 04:35:39;;;;;;;45.40;29.13;;;;;;;10.74;58.21;99217.41;5012855;28;20026;-79
2022/11/05 04:38:10;;;;;;;40.60;29.85;;;;;;;10.71;58.17;99211.69;5012649;28;20021;-79
2022/11/05 04:40:36;;;;;;;43.05;29.90;;;;;;;10.15;57.69;99119.84;5012943;28;20041;-78
2022/11/05 04:43:01;;;;;;;41.90;29.10;;;;;;;10.76;57.98;99220.69;5012827;28;20414;-78
2022/11/05 04:45:30;;;;;;;46.28;29.50;;;;;;;10.62;57.64;99203.06;5012637;28;20021;-78
2022/11/05 04:47:55;;;;;;;46.00;31.13;;;;;;;10.39;57.78;99174.16;5012418;28;20033;-78
2022/11/05 04:50:21;;;;;;;46.30;31.23;;;;;;;9.92;57.60;99116.53;5012681;28;20080;-79
2022/11/05 04:52:47;;;;;;;43.97;31.20;;;;;;;10.52;57.68;99207.00;5012605;28;20022;-78
2022/11/05 04:55:12;;;;;;;45.25;31.65;;;;;;;10.33;57.46;99195.19;5012641;28;20562;-78
2022/11/05 04:57:38;;;;;;;43.60;29.10;;;;;;;9.71;57.40;99098.03;5012361;28;20029;-78
2022/11/05 05:00:07;;;;;;;48.30;34.00;;;;;;;10.39;57.54;99218.19;5012388;28;20014;-78
2022/11/05 05:02:34;;;;;;;51.00;30.45;;;;;;;10.53;57.13;99245.59;5012500;28;20509;-78
2022/11/05 05:04:59;;;;;;;48.22;33.78;;;;;;;9.64;56.79;99115.53;5011896;28;20020;-79
2022/11/05 05:07:25;;;;;;;44.58;30.88;;;;;;;9.67;57.67;99138.94;5012120;28;20496;-78
2022/11/05 05:09:51;;;;;;;46.90;31.60;;;;;;;10.35;57.60;99257.34;5012229;28;20022;-78
2022/11/05 05:12:17;;;;;;;51.20;33.13;;;;;;;9.78;57.74;99173.56;5012337;28;20537;-78
2022/11/05 05:14:42;;;;;;;50.03;32.97;;;;;;;10.12;57.36;99223.09;5012532;28;20041;-79
2022/11/05 05:17:07;;;;;;;43.80;33.10;;;;;;;9.48;57.44;99122.63;5012312;28;20097;-78
2022/11/05 05:21:37;;;;;;;43.88;31.10;;;;;;;10.24;57.25;99246.41;5012191;28;20037;-79
2022/11/05 05:22:18;;;;;;;47.22;32.17;;;;;;;10.44;57.10;99269.47;5012071;28;20496;-79
2022/11/05 05:24:44;;;;;;;50.63;36.03;;;;;;;10.49;57.48;99295.28;5012019;28;20032;-78
2022/11/05 05:27:09;;;;;;;49.88;33.63;;;;;;;10.49;57.26;99284.75;5011828;28;20100;-78
2022/11/05 05:29:34;;;;;;;51.63;35.17;;;;;;;10.02;57.21;99214.66;5012309;28;20022;-78
2022/11/05 05:32:00;;;;;;;50.53;33.13;;;;;;;10.47;57.12;99287.56;5011959;28;20441;-78
2022/11/05 05:34:25;;;;;;;46.28;31.35;;;;;;;9.69;57.25;99172.00;5012091;28;20033;-78
2022/11/05 05:36:51;;;;;;;46.90;30.83;;;;;;;9.76;57.15;99191.38;5010718;28;20021;-78
2022/11/05 05:39:16;;;;;;;51.20;32.78;;;;;;;9.71;57.39;99211.38;5011832;28;20044;-78
2022/11/05 05:41:42;;;;;;;49.42;30.13;;;;;;;9.29;57.03;99151.31;5011898;28;20407;-78
2022/11/05 05:44:07;;;;;;;59.47;33.05;;;;;;;9.90;57.24;99262.75;5011749;28;20093;-78
2022/11/05 05:46:33;;;;;;;52.30;35.95;;;;;;;10.16;57.50;99329.91;5011483;28;20018;-78
2022/11/05 05:48:58;;;;;;;49.83;34.85;;;;;;;9.78;57.34;99270.28;5011514;28;20415;-78
2022/11/05 05:51:23;;;;;;;50.35;35.63;;;;;;;10.09;57.15;99320.25;5011487;28;20115;-78
2022/11/05 05:53:49;;;;;;;51.30;36.45;;;;;;;9.61;56.97;99250.31;5011766;28;20093;-78
2022/11/05 05:56:18;;;;;;;47.78;34.78;;;;;;;10.09;56.87;99358.00;5010264;28;20028;-78
2022/11/05 05:58:43;;;;;;;48.47;33.75;;;;;;;10.12;57.12;99330.44;5011781;28;20021;-78
2022/11/05 06:01:11;;;;;;;52.97;35.30;;;;;;;9.75;56.99;99278.56;5010350;28;20025;-78
2022/11/05 06:03:37;;;;;;;44.13;30.92;;;;;;;9.41;56.91;99219.22;5011561;28;20084;-78
2022/11/05 06:06:14;;;;;;;49.80;34.45;;;;;;;8.91;57.32;99156.56;5011468;28;20031;-78
2022/11/05 06:08:40;;;;;;;47.88;33.83;;;;;;;9.60;57.52;99257.41;5011098;28;20498;-78
2022/11/05 06:11:06;;;;;;;48.75;32.33;;;;;;;10.18;57.27;99346.38;5011496;28;20037;-78
2022/11/05 06:13:32;;;;;;;45.25;33.08;;;;;;;10.29;57.36;99360.97;5011465;28;20022;-78
2022/11/05 06:16:06;;;;;;;48.28;31.20;;;;;;;10.27;57.14;99333.13;5011260;28;20032;-78
2022/11/05 06:18:32;;;;;;;47.35;31.88;;;;;;;10.28;56.97;99318.94;5013984;28;20494;-78
2022/11/05 06:21:16;;;;;;;43.95;31.73;;;;;;;9.35;57.78;99169.84;5015285;28;20053;-78
2022/11/05 06:23:44;;;;;;;48.17;31.23;;;;;;;10.53;57.33;99348.53;5015214;28;20018;-78
2022/11/05 06:26:15;;;;;;;45.80;31.27;;;;;;;10.45;57.63;99339.72;5015671;28;20029;-79
2022/11/05 06:28:41;;;;;;;54.97;32.92;;;;;;;10.65;57.68;99366.38;5015216;28;20026;-78
2022/11/05 06:31:07;;;;;;;52.00;35.55;;;;;;;10.66;57.13;99331.06;5015195;28;20029;-78
2022/11/05 06:33:32;;;;;;;52.42;34.17;;;;;;;10.98;56.78;99365.97;5015163;28;20032;-79
2022/11/05 06:35:59;;;;;;;48.55;34.42;;;;;;;11.12;56.79;99396.84;5015071;28;20096;-78
2022/11/05 06:38:25;;;;;;;50.60;34.17;;;;;;;10.68;56.31;99284.16;5015018;28;20018;-78
2022/11/05 06:40:50;;;;;;;49.28;35.55;;;;;;;11.23;56.75;99364.69;5014871;28;20420;-79
2022/11/05 06:43:15;;;;;;;59.72;36.67;;;;;;;11.12;57.45;99333.44;5014704;28;20021;-78
2022/11/05 06:45:41;;;;;;;65.00;42.75;;;;;;;11.32;57.95;99371.50;5014858;28;20060;-79
2022/11/05 06:48:06;;;;;;;68.75;44.08;;;;;;;11.26;57.81;99361.66;5014891;28;20026;-78
2022/11/05 06:50:32;;;;;;;86.93;51.80;;;;;;;11.42;58.40;99366.72;5014683;28;20026;-78
2022/11/05 06:52:59;;;;;;;75.90;46.78;;;;;;;11.48;59.09;99366.97;5014504;28;20030;-79
2022/11/05 06:55:27;;;;;;;87.43;48.70;;;;;;;11.37;59.62;99345.31;5014745;28;20022;-79
2022/11/05 06:57:53;;;;;;;82.35;48.63;;;;;;;11.32;60.01;99346.88;5013446;28;20018;-78
2022/11/05 07:00:19;;;;;;;77.35;47.85;;;;;;;11.42;60.35;99373.81;5014954;28;20040;-78
2022/11/05 07:02:45;;;;;;;73.93;45.88;;;;;;;10.95;60.40;99305.59;5014684;28;20029;-79
2022/11/05 07:05:11;;;;;;;72.60;46.80;;;;;;;11.46;60.85;99362.69;5014719;28;20443;-78
2022/11/05 07:07:38;;;;;;;71.70;45.00;;;;;;;11.37;60.31;99333.91;5014437;28;20038;-78
2022/11/05 07:10:05;;;;;;;73.88;44.95;;;;;;;11.61;60.33;99362.63;5014456;28;20026;-78
2022/11/05 07:12:30;;;;;;;82.88;48.03;;;;;;;11.54;60.97;99339.78;5014577;28;20018;-78
2022/11/05 07:14:56;;;;;;;80.32;47.65;;;;;;;11.34;61.05;99302.56;5014411;28;20410;-79
2022/11/05 07:17:21;;;;;;;75.97;45.22;;;;;;;11.70;60.94;99352.75;5014250;28;20022;-78
2022/11/05 07:19:47;;;;;;;75.97;44.63;;;;;;;11.72;61.57;99350.72;5014220;28;20022;-78
2022/11/05 07:22:12;;;;;;;75.88;44.65;;;;;;;10.96;61.71;99225.34;5014407;28;20030;-79
2022/11/05 07:24:37;;;;;;;75.97;46.55;;;;;;;10.59;61.74;99155.09;5014264;28;20100;-78
2022/11/05 07:27:03;;;;;;;81.35;47.28;;;;;;;11.05;61.67;99232.16;5013847;28;20052;-79
2022/11/05 07:29:28;;;;;;;79.68;45.92;;;;;;;11.23;62.23;99248.41;5012216;28;20025;-78
2022/11/05 07:31:54;;;;;;;73.03;42.22;;;;;;;10.54;62.42;99139.81;5012688;28;20133;-78
2022/11/05 07:34:19;;;;;;;73.75;44.63;;;;;;;11.82;62.31;99339.84;5013964;28;20080;-79
2022/11/05 07:36:45;;;;;;;75.88;44.63;;;;;;;11.89;62.47;99340.72;5014089;28;20022;-78
2022/11/05 07:39:10;;;;;;;76.07;46.42;;;;;;;11.57;62.45;99270.66;5013953;28;20514;-79
2022/11/05 07:41:35;;;;;;;77.65;44.90;;;;;;;11.64;63.05;99274.97;5013973;28;20037;-78
2022/11/05 07:44:02;;;;;;;81.63;48.67;;;;;;;11.20;62.90;99190.66;5013830;28;20076;-78
2022/11/05 07:46:28;;;;;;;78.78;46.08;;;;;;;12.13;63.03;99326.28;5013970;28;20014;-78
2022/11/05 07:48:54;;;;;;;84.70;48.25;;;;;;;11.48;63.18;99211.00;5013796;28;20388;-78
2022/11/05 07:51:19;;;;;;;81.70;46.63;;;;;;;11.92;63.09;99268.94;5013759;28;20029;-79
2022/11/05 07:53:47;;;;;;;82.93;46.25;;;;;;;12.23;63.22;99319.63;5013750;28;20481;-78
2022/11/05 07:56:12;;;;;;;75.22;43.88;;;;;;;11.95;63.02;99263.25;5013625;28;20099;-78
2022/11/05 07:58:37;;;;;;;78.18;44.00;;;;;;;12.16;62.89;99292.31;5013611;28;20497;-78
2022/11/05 08:01:03;;;;;;;80.05;48.35;;;;;;;11.59;63.39;99182.19;5013602;28;20494;-78
2022/11/05 08:03:28;;;;;;;71.38;41.92;;;;;;;11.41;63.01;99143.03;5012263;28;20030;-78
2022/11/05 08:05:54;;;;;;;70.07;43.38;;;;;;;11.82;63.03;99191.72;5013352;28;20028;-77
2022/11/05 08:08:19;;;;;;;67.35;40.95;;;;;;;11.53;63.06;99156.53;5013126;28;20125;-79
2022/11/05 08:10:45;;;;;;;77.40;44.88;;;;;;;12.53;63.26;99311.44;5013266;28;20036;-79
2022/11/05 08:13:12;;;;;;;67.50;41.45;;;;;;;12.63;63.61;99301.31;5013225;28;20104;-78
2022/11/05 08:15:38;;;;;;;68.03;40.35;;;;;;;12.13;63.20;99215.13;5012209;28;20037;-78
2022/11/05 08:18:06;;;;;;;59.70;37.05;;;;;;;12.77;63.06;99296.91;5012937;28;20013;-79
2022/11/05 08:20:32;;;;;;;55.72;37.15;;;;;;;12.85;63.43;99313.44;5013015;28;20100;-78
2022/11/05 08:22:57;;;;;;;64.25;39.78;;;;;;;11.69;62.80;99113.09;5011890;28;20478;-78
2022/11/05 08:25:23;;;;;;;66.50;39.05;;;;;;;12.96;62.94;99296.16;5012924;28;20057;-79
2022/11/05 08:27:57;;;;;;;56.30;36.65;;;;;;;12.30;62.60;99182.00;5012714;28;20109;-78
2022/11/05 08:30:22;;;;;;;49.75;34.65;;;;;;;12.36;62.36;99174.09;5012947;28;20076;-79
2022/11/05 08:32:48;;;;;;;44.40;33.65;;;;;;;13.09;62.58;99279.47;5012747;28;20030;-78
2022/11/05 08:35:13;;;;;;;46.17;31.50;;;;;;;12.24;62.68;99137.81;5011408;28;20072;-78
2022/11/05 08:37:39;;;;;;;52.80;35.78;;;;;;;13.12;62.61;99271.94;5012750;28;20454;-78
2022/11/05 08:40:05;;;;;;;51.08;34.20;;;;;;;12.64;62.46;99181.13;5012230;28;20512;-78
2022/11/05 08:42:30;;;;;;;44.25;31.00;;;;;;;13.43;62.52;99297.94;5012693;28;20521;-78
2022/11/05 08:44:55;;;;;;;46.08;33.53;;;;;;;12.64;62.09;99149.34;5012582;28;20101;-78
2022/11/05 08:47:21;;;;;;;47.70;32.20;;;;;;;13.03;62.24;99204.22;5012488;28;20426;-78
2022/11/05 08:49:46;;;;;;;48.13;31.75;;;;;;;13.47;62.02;99258.56;5012568;28;20022;-78
2022/11/05 08:52:12;;;;;;;46.10;32.88;;;;;;;13.68;61.80;99292.84;5012657;28;20018;-78
2022/11/05 08:54:37;;;;;;;41.75;31.80;;;;;;;13.28;61.53;99215.09;5011230;28;20415;-78
2022/11/05 08:57:03;;;;;;;41.70;29.60;;;;;;;13.17;61.36;99184.69;5012581;28;20021;-78
2022/11/05 08:59:30;;;;;;;38.90;29.58;;;;;;;13.43;61.44;99205.13;5012743;28;20026;-78
2022/11/05 09:01:55;;;;;;;38.80;29.52;;;;;;;13.94;61.28;99276.09;5012376;28;20025;-78
2022/11/05 09:04:21;;;;;;;39.78;29.52;;;;;;;13.19;61.27;99163.28;5012432;28;20414;-78
2022/11/05 09:06:47;;;;;;;39.08;29.85;;;;;;;13.53;61.00;99194.09;5012180;28;20434;-78
2022/11/05 09:09:12;;;;;;;34.67;26.23;;;;;;;13.75;60.83;99208.78;5012050;28;20586;-78
2022/11/05 09:11:38;;;;;;;32.65;27.52;;;;;;;13.71;60.63;99198.78;5012104;28;20021;-79
2022/11/05 09:14:03;;;;;;;32.42;25.58;;;;;;;14.29;60.65;99271.38;5012063;28;20030;-78
2022/11/05 09:16:31;;;;;;;31.95;24.05;;;;;;;14.34;60.51;99246.84;5012069;28;20065;-78
2022/11/05 09:18:56;;;;;;;34.47;26.05;;;;;;;14.51;60.13;99259.47;5011998;28;20017;-78
2022/11/05 09:21:22;;;;;;;33.22;27.75;;;;;;;13.75;59.92;99129.16;5012029;28;20028;-78
2022/11/05 09:23:47;;;;;;;29.90;25.98;;;;;;;14.53;60.21;99256.59;5012309;28;20080;-78
2022/11/05 09:26:13;;;;;;;29.35;26.02;;;;;;;14.04;59.99;99162.34;5012056;28;20034;-79
2022/11/05 09:28:39;;;;;;;27.73;24.27;;;;;;;14.80;59.56;99254.66;5011913;28;20033;-79
2022/11/05 09:31:07;;;;;;;31.38;26.35;;;;;;;14.91;59.74;99246.03;5011939;28;20061;-79
2022/11/05 09:33:33;;;;;;;27.70;23.40;;;;;;;14.32;59.30;99122.22;5011982;28;20423;-79
2022/11/05 09:35:59;;;;;;;29.00;24.48;;;;;;;14.49;59.56;99130.53;5011704;28;20040;-79
2022/11/05 09:38:24;;;;;;;27.10;23.95;;;;;;;14.28;59.19;99079.34;5011614;28;20490;-78
2022/11/05 09:41:01;;;;;;;27.00;24.13;;;;;;;15.46;58.72;99233.78;5011705;28;20502;-79
2022/11/05 09:43:32;;;;;;;30.85;23.48;;;;;;;14.94;58.53;99128.63;5011722;28;20021;-79
2022/11/05 09:46:03;;;;;;;27.70;24.60;;;;;;;15.76;58.40;99238.50;5011628;28;20598;-78
2022/11/05 09:48:31;;;;;;;30.02;24.15;;;;;;;14.86;58.43;99065.91;5011632;28;20030;-78
2022/11/05 09:50:57;;;;;;;28.98;24.48;;;;;;;15.25;58.66;99109.97;5011623;28;20018;-79
2022/11/05 09:53:23;;;;;;;29.08;23.23;;;;;;;15.34;58.30;99107.00;5011688;28;20084;-78
2022/11/05 09:55:58;;;;;;;25.92;23.30;;;;;;;16.18;58.05;99213.69;5010338;28;20046;-79
2022/11/05 09:58:42;;;;;;;33.13;24.10;;;;;;;16.28;57.95;99218.50;5011381;28;20097;-79
2022/11/05 10:01:16;;;;;;;28.10;24.02;;;;;;;16.12;57.60;99177.28;5011349;28;20563;-79
2022/11/05 10:03:48;;;;;;;28.05;22.27;;;;;;;16.40;57.18;99199.94;5011424;28;20088;-79
2022/11/05 10:06:20;;;;;;;30.27;23.67;;;;;;;16.64;57.17;99219.50;5011391;28;20029;-78
2022/11/05 10:08:51;;;;;;;27.35;22.38;;;;;;;16.75;57.11;99208.94;5010988;28;20042;-78
2022/11/05 10:11:22;;;;;;;30.30;23.40;;;;;;;16.89;57.29;99196.22;5011522;28;20092;-78
2022/11/05 10:13:55;;;;;;;28.42;23.17;;;;;;;16.91;57.29;99188.81;5011597;28;20030;-79
2022/11/05 10:16:32;;;;;;;34.83;22.98;;;;;;;17.03;57.20;99191.50;5011432;28;20518;-78
2022/11/05 10:19:11;;;;;;;29.83;24.08;;;;;;;16.62;56.80;99114.97;5011370;28;20084;-78
2022/11/05 10:21:37;;;;;;;30.20;23.73;;;;;;;17.10;57.22;99163.72;5011190;28;20026;-78
2022/11/05 10:24:13;;;;;;;28.80;25.65;;;;;;;16.38;57.19;99047.47;5011249;28;20098;-78
2022/11/05 10:26:39;;;;;;;26.08;23.33;;;;;;;17.34;57.24;99169.09;5011513;28;20029;-79
2022/11/05 10:29:05;;;;;;;30.13;23.73;;;;;;;17.20;57.33;99141.00;5011290;28;20384;-78
2022/11/05 10:31:34;;;;;;;28.35;23.33;;;;;;;17.48;57.32;99186.50;5011317;28;20049;-78
2022/11/05 10:34:04;;;;;;;30.27;24.85;;;;;;;17.51;57.43;99158.53;5011211;28;20063;-78
2022/11/05 10:36:35;;;;;;;29.10;24.30;;;;;;;17.64;57.36;99167.09;5011184;28;20025;-79
2022/11/05 10:39:09;;;;;;;25.03;21.93;;;;;;;17.70;57.31;99166.22;5011228;28;20102;-79
2022/11/05 10:41:34;;;;;;;31.67;25.10;;;;;;;17.82;57.46;99154.69;5011166;28;20026;-78
2022/11/05 10:44:11;;;;;;;27.02;23.48;;;;;;;17.81;57.37;99150.41;5011070;28;20033;-79
2022/11/05 10:46:42;;;;;;;28.58;24.75;;;;;;;17.97;57.25;99147.84;5011046;28;20028;-78
2022/11/05 10:49:52;;;;;;;31.27;23.23;;;;;;;17.39;57.07;99055.25;5010990;28;20112;-78
2022/11/05 10:52:32;;;;;;;28.58;23.15;;;;;;;18.08;57.01;99146.19;5010784;28;20050;-79
2022/11/05 10:55:01;;;;;;;29.38;23.90;;;;;;;18.15;57.26;99133.53;5011002;28;20032;-78
2022/11/05 10:57:36;;;;;;;29.85;23.85;;;;;;;17.59;57.19;99027.38;5011579;28;20021;-78
2022/11/05 11:00:22;;;;;;;28.05;22.98;;;;;;;18.26;57.00;99139.88;5011133;28;20108;-79
2022/11/05 11:03:01;;;;;;;28.65;23.48;;;;;;;18.31;57.05;99129.28;5011036;28;20559;-79
2022/11/05 11:05:30;;;;;;;27.85;23.77;;;;;;;18.36;57.07;99124.84;5014539;28;20033;-79
2022/11/05 11:08:26;;;;;;;28.00;23.75;;;;;;;18.26;56.59;99103.28;5014238;28;20037;-79
2022/11/05 11:10:56;;;;;;;28.60;21.20;;;;;;;18.42;56.64;99115.06;5014151;28;20495;-78
2022/11/05 11:13:25;;;;;;;41.13;26.15;;;;;;;18.48;56.46;99114.09;5014445;28;20030;-79
2022/11/05 11:15:51;;;;;;;29.88;23.42;;;;;;;18.06;56.28;99041.44;5014482;28;20032;-79
2022/11/05 11:18:29;;;;;;;28.42;22.17;;;;;;;18.52;56.22;99099.22;5014799;28;20026;-79
2022/11/05 11:21:15;;;;;;;33.00;23.20;;;;;;;18.44;56.04;99094.25;5014184;28;20499;-79
2022/11/05 11:23:42;;;;;;;26.52;22.38;;;;;;;18.57;55.93;99109.19;5014261;28;20495;-78
2022/11/05 11:26:10;;;;;;;29.73;22.30;;;;;;;18.29;55.81;99041.31;5014410;28;20556;-79
2022/11/05 11:28:44;;;;;;;28.13;22.17;;;;;;;17.91;55.63;98982.38;5014083;28;20037;-79
2022/11/05 11:31:21;;;;;;;30.17;21.13;;;;;;;17.88;55.59;98973.00;5012777;28;20109;-79
2022/11/05 11:33:52;;;;;;;32.53;21.35;;;;;;;18.35;55.52;99037.69;5013821;28;20030;-79
2022/11/05 11:36:23;;;;;;;24.20;20.30;;;;;;;17.99;55.41;98977.47;5013832;28;20104;-79
2022/11/05 11:38:49;;;;;;;;;;;;;;;18.66;55.41;99094.44;5014222;28;20049;-79
2022/11/05 11:41:35;;;;;;;23.52;20.17;;;;;;;18.26;55.20;99001.72;5013860;28;20386;-79
2022/11/05 11:44:10;;;;;;;23.63;19.65;;;;;;;18.78;55.00;99078.31;5013678;28;20022;-79
2022/11/05 11:46:36;;;;;;;26.67;21.52;;;;;;;18.69;54.89;99067.19;5013839;28;20053;-79
2022/11/05 11:49:04;;;;;;;20.67;17.17;;;;;;;18.87;54.20;99082.19;5013863;28;20065;-79
2022/11/05 11:51:43;;;;;;;20.00;17.23;;;;;;;18.98;53.85;99082.13;5013706;28;20076;-79
2022/11/05 11:54:20;;;;;;;23.17;18.90;;;;;;;18.82;53.93;99050.84;5013494;28;20037;-79
2022/11/05 11:56:47;;;;;;;18.23;14.43;;;;;;;18.41;51.68;98964.56;5013291;28;20026;-79
2022/11/05 11:59:29;;;;;;;20.50;10.07;;;;;;;19.22;48.41;99088.09;5013428;28;20453;-79
2022/11/05 12:02:38;;;;;;;12.20;7.47;;;;;;;19.43;43.64;99064.31;5013314;28;20026;-80
2022/11/05 12:05:09;;;;;;;14.63;6.97;;;;;;;19.62;44.61;99052.28;5013419;28;20061;-79
2022/11/05 12:07:51;;;;;;;15.10;7.70;;;;;;;19.74;43.79;99060.19;5013404;28;20046;-79
2022/11/05 12:10:35;;;;;;;;;;;;;;;19.76;43.42;99055.41;5013783;28;20415;-80